KLMT

Crater Lake-Klamath Regional Airport

Klamath Falls, Oregon, USA
METAR KLMT 260253Z 23014KT 8SM -SN OVC040 02/M04 A2991 RMK AO2 SNB44 SLP145 P0000 60000 T00221039 56024
Observed Flight Rules
Feb-26 @ 02:53 UTC (41 minutes ago) Visual Flight Rules
Wind Visibility Clouds Conditions
230° at 14 knots 8 miles
  • Overcast at 4,000' AGL
  • Light Snow
Temperatures Readings Precipitation
Current 2°C / 36°F
Dewpoint -4°C / 25°F
Humidity 65%
Altimeter 29.91" Hg
Pressure 1014.5 hPa
Elevation 1246
Current Rain 0.005
METAR KLMT 260253Z 23014KT 8SM -SN OVC040 02/M04 A2991 RMK AO2 SNB44 SLP145 P0000 60000 T00221039 56024
Observed Flight Rules
Feb-26 @ 02:53 UTC
(41 minutes ago)
VFR
Wind Visibility
230° at 14 knots 8 miles
Clouds
  • Overcast at 4,000' AGL
Conditions
  • Light Snow
Temperature Dewpoint
2°C / 36°F -4°C / 25°F
Humidity Altimeter Pressure
65% 29.91" Hg 1014.5 hPa
Current Rain
0.005